createdAt,value
2017-10-10T09:27:18.676Z,250
2017-10-10T09:27:38.834Z,255
2017-10-10T09:27:58.284Z,255
2017-10-10T09:28:17.209Z,265
2017-10-10T09:28:36.705Z,260
2017-10-10T09:28:57.049Z,260
2017-10-10T09:29:17.264Z,265
2017-10-10T09:29:36.176Z,265
2017-10-10T09:29:55.075Z,270
2017-10-10T09:30:39.915Z,270
2017-10-10T09:31:03.479Z,275
2017-10-10T09:31:29.860Z,275
2017-10-10T09:31:54.507Z,280
2017-10-10T09:32:15.119Z,280
2017-10-10T09:32:34.868Z,285
2017-10-10T09:32:53.566Z,290
2017-10-10T09:33:13.831Z,295
2017-10-10T09:33:33.476Z,295
2017-10-10T09:33:53.055Z,305
2017-10-10T09:34:13.319Z,300
2017-10-10T09:34:33.107Z,305
2017-10-10T09:34:53.139Z,300
2017-10-10T09:35:14.532Z,305
2017-10-10T09:35:44.472Z,315
2017-10-10T09:36:08.948Z,310
2017-10-10T09:36:36.127Z,320
2017-10-10T09:36:56.853Z,320
2017-10-10T09:37:15.977Z,325
2017-10-10T09:37:35.638Z,325
2017-10-10T09:37:54.804Z,320
2017-10-10T09:38:14.099Z,325
2017-10-10T09:38:34.101Z,325
2017-10-10T09:38:54.107Z,335
2017-10-10T09:39:13.155Z,330
2017-10-10T09:39:46.718Z,335
2017-10-10T09:40:06.234Z,345
2017-10-10T09:40:26.498Z,340
2017-10-10T09:41:00.015Z,350
2017-10-10T09:41:20.822Z,355
2017-10-10T09:41:43.718Z,350
2017-10-10T09:42:27.748Z,355
2017-10-10T09:42:47.947Z,360
2017-10-10T09:43:07.659Z,365
2017-10-10T09:43:27.560Z,375
2017-10-10T09:43:48.314Z,375
2017-10-10T09:44:09.079Z,375
2017-10-10T09:44:42.840Z,375
2017-10-10T09:45:03.502Z,380
2017-10-10T09:45:23.147Z,385
2017-10-10T09:45:43.391Z,380
2017-10-10T09:46:06.123Z,390
2017-10-10T09:46:26.240Z,385
2017-10-10T09:46:46.083Z,390
2017-10-10T09:47:06.848Z,390
2017-10-10T09:47:26.367Z,400
2017-10-10T09:47:45.485Z,400
2017-10-10T09:48:05.266Z,405
2017-10-10T09:48:25.463Z,410
2017-10-10T09:48:45.350Z,410
2017-10-10T09:49:13.936Z,415
2017-10-10T09:49:57.331Z,420
2017-10-10T09:50:38.768Z,425
2017-10-10T09:50:58.865Z,430
2017-10-10T09:51:19.315Z,430
2017-10-10T09:51:43.356Z,435
2017-10-10T09:52:37.090Z,445
2017-10-10T09:52:57.502Z,445
2017-10-10T09:53:17.715Z,450
2017-10-10T09:53:36.745Z,455
2017-10-10T09:53:57.182Z,455
2017-10-10T09:54:16.247Z,455
2017-10-10T09:54:36.870Z,455
2017-10-10T09:54:57.410Z,455
2017-10-10T09:55:18.158Z,455
2017-10-10T09:55:38.342Z,460
2017-10-10T09:55:58.834Z,460
2017-10-10T09:56:19.159Z,455
2017-10-10T09:56:38.309Z,455
2017-10-10T09:56:58.455Z,455
2017-10-10T09:57:18.849Z,460
2017-10-10T09:57:52.548Z,460
2017-10-10T09:58:12.364Z,465
2017-10-10T09:58:31.991Z,470
2017-10-10T09:58:51.029Z,470
2017-10-10T09:59:09.995Z,475
2017-10-10T09:59:30.033Z,480
2017-10-10T09:59:50.564Z,485
2017-10-10T10:00:10.696Z,485
2017-10-10T10:00:31.028Z,490
2017-10-10T10:00:50.794Z,495
2017-10-10T10:01:11.113Z,495
2017-10-10T10:01:44.555Z,500
2017-10-10T10:02:04.228Z,500
2017-10-10T10:02:24.448Z,500
2017-10-10T10:02:44.175Z,505
2017-10-10T10:03:04.542Z,510
2017-10-10T10:03:37.959Z,510
2017-10-10T10:03:57.572Z,510
2017-10-10T10:04:17.429Z,510
2017-10-10T10:04:37.725Z,510
2017-10-10T10:04:57.636Z,515
2017-10-10T10:05:20.929Z,515
2017-10-10T10:05:42.834Z,515
2017-10-10T10:06:03.229Z,520
2017-10-10T10:06:22.205Z,520
2017-10-10T10:06:42.576Z,525
2017-10-10T10:07:02.847Z,525
2017-10-10T10:07:21.821Z,530
2017-10-10T10:07:40.449Z,530
2017-10-10T10:07:59.478Z,530
2017-10-10T10:08:19.927Z,530
2017-10-10T10:08:39.608Z,535
2017-10-10T10:08:59.410Z,535
2017-10-10T10:09:19.598Z,535
2017-10-10T10:09:37.951Z,535
2017-10-10T10:10:31.165Z,535
2017-10-10T10:10:51.469Z,530
2017-10-10T10:11:11.564Z,530
2017-10-10T10:11:31.340Z,535
2017-10-10T10:11:51.919Z,530
2017-10-10T10:12:12.333Z,530
2017-10-10T10:12:31.320Z,525
2017-10-10T10:12:51.742Z,525
2017-10-10T10:13:11.588Z,525
2017-10-10T10:13:32.005Z,520
2017-10-10T10:13:51.598Z,515
2017-10-10T10:14:11.477Z,520
2017-10-10T10:14:31.216Z,515
2017-10-10T10:14:50.481Z,510
2017-10-10T10:15:11.099Z,515
2017-10-10T10:15:30.360Z,520
2017-10-10T10:15:50.192Z,520
2017-10-10T10:16:10.330Z,520
2017-10-10T10:16:30.659Z,520
2017-10-10T10:16:51.558Z,525
2017-10-10T10:17:11.430Z,525
2017-10-10T10:17:44.486Z,525
2017-10-10T10:18:07.852Z,520
2017-10-10T10:18:33.579Z,525
2017-10-10T10:18:54.755Z,525
2017-10-10T10:19:15.119Z,525
2017-10-10T10:19:35.695Z,525
2017-10-10T10:19:55.914Z,520
2017-10-10T10:20:16.513Z,520
2017-10-10T10:20:36.438Z,520
2017-10-10T10:21:02.775Z,520
2017-10-10T10:21:23.215Z,520
2017-10-10T10:21:43.025Z,520
2017-10-10T10:22:03.246Z,525
2017-10-10T10:22:23.003Z,525
2017-10-10T10:22:42.032Z,530
2017-10-10T10:23:01.802Z,530
2017-10-10T10:23:21.058Z,530
2017-10-10T10:23:41.088Z,530
2017-10-10T10:24:00.744Z,530
2017-10-10T10:24:19.936Z,535
2017-10-10T10:24:41.422Z,540
2017-10-10T10:25:02.784Z,540
2017-10-10T10:25:24.124Z,545
2017-10-10T10:25:44.646Z,550
2017-10-10T10:26:04.673Z,545
2017-10-10T10:26:25.306Z,545
2017-10-10T10:26:45.502Z,545
2017-10-10T10:27:20.137Z,545
2017-10-10T10:27:39.955Z,550
2017-10-10T10:28:00.968Z,545
2017-10-10T10:28:19.853Z,545
2017-10-10T10:28:40.794Z,550
2017-10-10T10:29:01.345Z,555
2017-10-10T10:29:22.205Z,555
2017-10-10T10:29:42.182Z,555
2017-10-10T10:30:02.487Z,550
2017-10-10T10:30:23.547Z,560
2017-10-10T10:30:43.316Z,555
2017-10-10T10:31:02.837Z,555
2017-10-10T10:31:23.595Z,565
2017-10-10T10:31:44.780Z,560
2017-10-10T10:32:05.583Z,565
2017-10-10T10:32:26.232Z,565
2017-10-10T10:32:46.916Z,565
2017-10-10T10:33:06.551Z,570
2017-10-10T10:33:27.297Z,570
2017-10-10T10:33:46.283Z,575
2017-10-10T10:34:07.003Z,575
2017-10-10T10:34:28.296Z,580
2017-10-10T10:34:49.112Z,580
2017-10-10T10:35:08.853Z,580
2017-10-10T10:35:28.040Z,585
2017-10-10T10:35:48.298Z,590
2017-10-10T10:36:08.032Z,590
2017-10-10T10:36:27.950Z,600
2017-10-10T10:36:48.612Z,595
2017-10-10T10:37:08.157Z,600
2017-10-10T10:37:28.214Z,600
2017-10-10T10:37:48.765Z,605
2017-10-10T10:38:09.700Z,605
2017-10-10T10:38:30.412Z,610
2017-10-10T10:38:51.333Z,615
2017-10-10T10:39:12.483Z,620
2017-10-10T10:39:33.246Z,625
2017-10-10T10:39:52.998Z,630
2017-10-10T10:40:13.175Z,635
2017-10-10T10:40:33.410Z,645
2017-10-10T10:40:53.671Z,650
2017-10-10T10:41:14.478Z,660
2017-10-10T10:41:34.778Z,670
2017-10-10T10:41:55.749Z,680
2017-10-10T10:42:16.532Z,685
2017-10-10T10:42:36.758Z,690
2017-10-10T10:42:57.237Z,710
2017-10-10T10:43:17.192Z,715
2017-10-10T10:43:36.307Z,720
2017-10-10T10:43:56.869Z,730
2017-10-10T10:44:16.879Z,725
2017-10-10T10:44:37.202Z,730
2017-10-10T10:44:57.908Z,715
2017-10-10T10:45:18.534Z,710
2017-10-10T10:45:39.316Z,715
2017-10-10T10:46:00.467Z,705
2017-10-10T10:46:19.206Z,705
2017-10-10T10:46:38.939Z,710
2017-10-10T10:47:33.469Z,730
2017-10-10T10:47:53.580Z,740
2017-10-10T10:48:14.432Z,740
2017-10-10T10:48:34.974Z,730
2017-10-10T10:48:56.042Z,725
2017-10-10T10:49:17.134Z,720
2017-10-10T10:49:38.163Z,710
2017-10-10T10:49:59.999Z,705
2017-10-10T10:50:21.704Z,695
2017-10-10T10:50:43.020Z,705
2017-10-10T10:51:03.471Z,695
2017-10-10T10:51:23.268Z,695
2017-10-10T10:51:43.409Z,695
2017-10-10T10:52:04.026Z,695
2017-10-10T10:52:26.043Z,695
2017-10-10T10:52:47.151Z,695
2017-10-10T10:53:08.348Z,700
2017-10-10T10:53:29.913Z,695
2017-10-10T10:53:50.769Z,695
2017-10-10T10:54:11.800Z,700
2017-10-10T10:54:33.715Z,700
2017-10-10T10:54:55.421Z,700
2017-10-10T10:55:16.947Z,705
2017-10-10T10:55:39.303Z,705
2017-10-10T10:56:01.013Z,710
2017-10-10T10:56:22.821Z,715
2017-10-10T10:56:43.961Z,715
2017-10-10T10:57:05.167Z,720
2017-10-10T10:57:25.065Z,720
2017-10-10T10:57:45.721Z,730
2017-10-10T10:58:05.170Z,730
2017-10-10T10:58:25.713Z,720
2017-10-10T10:58:47.108Z,725
2017-10-10T10:59:07.678Z,725
2017-10-10T10:59:29.601Z,725
2017-10-10T10:59:52.158Z,730
2017-10-10T11:00:14.109Z,730
2017-10-10T11:00:36.785Z,730
2017-10-10T11:00:58.239Z,735
2017-10-10T11:01:20.313Z,730
2017-10-10T11:01:42.835Z,740
2017-10-10T11:02:06.298Z,735
2017-10-10T11:02:29.729Z,735
2017-10-10T11:02:54.426Z,745
2017-10-10T11:03:20.961Z,745
2017-10-10T11:03:41.663Z,745
2017-10-10T11:04:04.606Z,750
2017-10-10T11:04:27.821Z,750
2017-10-10T11:04:52.196Z,750
2017-10-10T11:05:15.128Z,750
2017-10-10T11:05:34.930Z,755
2017-10-10T11:05:57.770Z,755
2017-10-10T11:06:20.717Z,760
2017-10-10T11:06:41.314Z,770
2017-10-10T11:07:02.796Z,775
2017-10-10T11:07:24.954Z,775
2017-10-10T11:07:46.551Z,775
2017-10-10T11:08:08.434Z,780
2017-10-10T11:08:29.353Z,785
2017-10-10T11:08:51.293Z,785
2017-10-10T11:09:19.706Z,795
2017-10-10T11:09:55.510Z,800
2017-10-10T11:10:38.078Z,820
2017-10-10T11:11:08.433Z,835
2017-10-10T11:11:29.450Z,850
2017-10-10T11:11:51.343Z,850
2017-10-10T11:12:12.797Z,860
2017-10-10T11:12:33.705Z,860
2017-10-10T11:13:10.038Z,845
2017-10-10T11:13:29.916Z,840
2017-10-10T11:13:51.121Z,840
2017-10-10T11:14:13.345Z,840
2017-10-10T11:14:34.957Z,840
2017-10-10T11:14:56.036Z,845
2017-10-10T11:15:31.970Z,845
2017-10-10T11:15:53.228Z,845
2017-10-10T11:16:13.567Z,850
2017-10-10T11:16:35.003Z,850
2017-10-10T11:16:56.832Z,850
2017-10-10T11:17:18.533Z,845
2017-10-10T11:17:38.877Z,855
2017-10-10T11:18:01.100Z,860
2017-10-10T11:18:21.188Z,865
2017-10-10T11:18:42.249Z,885
2017-10-10T11:19:02.866Z,905
2017-10-10T11:19:24.860Z,930
2017-10-10T11:19:46.730Z,940
2017-10-10T11:20:08.766Z,960
2017-10-10T11:20:30.212Z,970
2017-10-10T11:20:51.713Z,960
2017-10-10T11:21:13.370Z,950
2017-10-10T11:21:34.705Z,945
2017-10-10T11:21:57.428Z,945
2017-10-10T11:22:19.231Z,960
2017-10-10T11:22:40.599Z,970
2017-10-10T11:23:02.814Z,965
2017-10-10T11:23:25.038Z,970
2017-10-10T11:23:46.321Z,970
2017-10-10T11:24:20.997Z,945
2017-10-10T11:24:42.549Z,945
2017-10-10T11:25:03.803Z,940
2017-10-10T11:25:24.231Z,940
2017-10-10T11:25:46.013Z,930
2017-10-10T11:26:08.789Z,935
2017-10-10T11:26:30.477Z,935
2017-10-10T11:26:51.227Z,930
2017-10-10T11:27:11.764Z,925
2017-10-10T11:27:32.772Z,935
2017-10-10T11:27:55.404Z,930
2017-10-10T11:28:15.419Z,930
2017-10-10T11:28:42.226Z,930
2017-10-10T11:29:03.541Z,935
2017-10-10T11:29:25.104Z,935
2017-10-10T11:29:46.785Z,940
2017-10-10T11:30:07.954Z,940
2017-10-10T11:30:32.126Z,945
2017-10-10T11:30:52.535Z,940
2017-10-10T11:31:13.934Z,935
2017-10-10T11:31:36.861Z,940
2017-10-10T11:32:06.698Z,945
2017-10-10T11:32:36.698Z,940
2017-10-10T11:32:59.406Z,950
2017-10-10T11:33:23.322Z,960
2017-10-10T11:33:43.185Z,960
2017-10-10T11:34:03.631Z,960
2017-10-10T11:34:25.160Z,965
2017-10-10T11:34:46.261Z,960
2017-10-10T11:35:08.019Z,960
2017-10-10T11:35:28.071Z,960
2017-10-10T11:35:48.749Z,960
2017-10-10T11:36:08.818Z,965
2017-10-10T11:36:29.210Z,965
2017-10-10T11:36:50.475Z,960
2017-10-10T11:37:12.204Z,960
2017-10-10T11:37:34.109Z,960
2017-10-10T11:37:55.249Z,960
2017-10-10T11:38:16.482Z,955
2017-10-10T11:38:36.366Z,965
2017-10-10T11:38:57.996Z,965
2017-10-10T11:39:20.668Z,970
2017-10-10T11:39:41.334Z,955
2017-10-10T11:40:02.039Z,965
2017-10-10T11:40:24.428Z,970
2017-10-10T11:40:45.831Z,975
2017-10-10T11:41:07.054Z,975
2017-10-10T11:41:29.740Z,980
2017-10-10T11:41:51.356Z,980
2017-10-10T11:42:13.939Z,980
2017-10-10T11:42:36.055Z,985
2017-10-10T11:42:57.720Z,975
2017-10-10T11:43:19.990Z,980
2017-10-10T11:43:41.905Z,980
2017-10-10T11:44:04.584Z,980
2017-10-10T11:44:25.345Z,985
2017-10-10T11:44:49.527Z,990
2017-10-10T11:45:12.570Z,990
2017-10-10T11:45:34.731Z,995
2017-10-10T11:45:56.763Z,990
2017-10-10T11:46:19.132Z,990
2017-10-10T11:46:40.411Z,995
2017-10-10T11:47:00.793Z,995
2017-10-10T11:47:21.911Z,990
2017-10-10T11:47:43.378Z,995
2017-10-10T11:48:04.477Z,1005
2017-10-10T11:48:28.832Z,1010
2017-10-10T11:48:50.678Z,1010
2017-10-10T11:49:13.986Z,1015
2017-10-10T11:49:35.828Z,1020
2017-10-10T11:49:56.807Z,1025
2017-10-10T11:50:16.655Z,1025
2017-10-10T11:50:36.722Z,1025
2017-10-10T11:50:58.423Z,1035
2017-10-10T11:51:19.218Z,1040
2017-10-10T11:51:39.850Z,1045
2017-10-10T11:52:01.188Z,1050
2017-10-10T11:52:22.770Z,1055
2017-10-10T11:52:43.756Z,1060
2017-10-10T11:53:04.163Z,1060
2017-10-10T11:53:25.744Z,1070
2017-10-10T11:53:46.207Z,1080
2017-10-10T11:54:07.258Z,1080
2017-10-10T11:54:28.735Z,1085
2017-10-10T11:54:49.700Z,1085
2017-10-10T11:55:09.586Z,1090
2017-10-10T11:55:30.544Z,1105
2017-10-10T11:55:52.635Z,1105
2017-10-10T11:56:14.274Z,1115
2017-10-10T11:56:33.385Z,1130
2017-10-10T11:56:55.086Z,1125
2017-10-10T11:57:14.518Z,1140
2017-10-10T11:57:34.483Z,1175
2017-10-10T11:57:55.005Z,1220
2017-10-10T11:58:16.349Z,1255
2017-10-10T11:58:35.599Z,1295
2017-10-10T11:58:57.219Z,1335
2017-10-10T11:59:19.086Z,1345
2017-10-10T11:59:38.092Z,1345
2017-10-10T11:59:59.919Z,1345
2017-10-10T12:00:20.764Z,1325
2017-10-10T12:00:40.268Z,1310
2017-10-10T12:01:01.096Z,1325
2017-10-10T12:01:22.666Z,1340
2017-10-10T12:01:44.377Z,1365
2017-10-10T12:02:05.852Z,1385
2017-10-10T12:02:26.651Z,1400
2017-10-10T12:02:47.453Z,1450
2017-10-10T12:03:07.663Z,1480
2017-10-10T12:03:29.136Z,1520
2017-10-10T12:03:50.651Z,1540
2017-10-10T12:04:12.879Z,1545
2017-10-10T12:04:35.223Z,1565
2017-10-10T12:04:56.153Z,1595
2017-10-10T12:05:18.262Z,1600
2017-10-10T12:05:38.481Z,1615
2017-10-10T12:05:58.366Z,1595
2017-10-10T12:06:19.692Z,1565
2017-10-10T12:06:40.101Z,1530
2017-10-10T12:07:01.480Z,1510
2017-10-10T12:07:22.350Z,1480
2017-10-10T12:07:44.027Z,1460
2017-10-10T12:08:12.465Z,1455
2017-10-10T12:08:47.154Z,1460
2017-10-10T12:09:25.816Z,1450
2017-10-10T12:10:02.336Z,1480
2017-10-10T12:10:24.842Z,1505
2017-10-10T12:10:50.430Z,1545
2017-10-10T12:11:21.265Z,1560
2017-10-10T12:11:51.959Z,1555
2017-10-10T12:12:17.994Z,1525
2017-10-10T12:12:39.941Z,1510
2017-10-10T12:13:00.765Z,1505
2017-10-10T12:13:22.138Z,1515
2017-10-10T12:13:43.581Z,1515
2017-10-10T12:14:11.301Z,1505
2017-10-10T12:14:32.817Z,1500
2017-10-10T12:14:54.733Z,1490
2017-10-10T12:15:18.199Z,1500
2017-10-10T12:15:46.135Z,1500
2017-10-10T12:16:13.091Z,1515
2017-10-10T12:16:40.493Z,1545
2017-10-10T12:17:06.316Z,1565
2017-10-10T12:17:32.751Z,1575
2017-10-10T12:17:56.496Z,1560
2017-10-10T12:18:16.546Z,1535
2017-10-10T12:18:37.282Z,1500
2017-10-10T12:18:58.249Z,1475
2017-10-10T12:19:18.704Z,1475
2017-10-10T12:19:39.435Z,1475
2017-10-10T12:19:58.987Z,1480
2017-10-10T12:20:18.722Z,1485
2017-10-10T12:20:41.305Z,1515
2017-10-10T12:21:05.894Z,1535
2017-10-10T12:21:29.164Z,1565
2017-10-10T12:21:50.606Z,1570
2017-10-10T12:22:12.162Z,1575
2017-10-10T12:22:33.217Z,1585
2017-10-10T12:22:52.986Z,1580
2017-10-10T12:23:14.273Z,1605
2017-10-10T12:23:36.205Z,1640
2017-10-10T12:23:56.472Z,1685
2017-10-10T12:24:16.703Z,1720
2017-10-10T12:24:36.347Z,1755
2017-10-10T12:24:56.588Z,1795
2017-10-10T12:25:16.882Z,1830
2017-10-10T12:25:38.168Z,1865
2017-10-10T12:25:58.612Z,1875
2017-10-10T12:26:18.212Z,1845
2017-10-10T12:26:39.064Z,1805
2017-10-10T12:26:59.898Z,1745
2017-10-10T12:27:19.820Z,1710
2017-10-10T12:27:40.722Z,1735
2017-10-10T12:28:00.631Z,1770
2017-10-10T12:28:21.370Z,1780
2017-10-10T12:28:42.214Z,1790
2017-10-10T12:29:02.422Z,1820
2017-10-10T12:29:22.409Z,1850
2017-10-10T12:29:43.605Z,1840
2017-10-10T12:30:04.880Z,1810
2017-10-10T12:30:25.609Z,1815
2017-10-10T12:30:46.744Z,1805
2017-10-10T12:31:07.113Z,1790
2017-10-10T12:31:27.410Z,1775
2017-10-10T12:31:48.662Z,1770
2017-10-10T12:32:09.259Z,1760
2017-10-10T12:32:30.783Z,1745
2017-10-10T12:32:50.070Z,1730
2017-10-10T12:33:10.969Z,1705
2017-10-10T12:33:31.576Z,1700
2017-10-10T12:33:51.212Z,1680
2017-10-10T12:34:12.751Z,1670
2017-10-10T12:34:33.068Z,1660
2017-10-10T12:34:54.166Z,1660
2017-10-10T12:35:15.032Z,1680
2017-10-10T12:35:36.205Z,1675
2017-10-10T12:35:56.831Z,1680
2017-10-10T12:36:15.523Z,1685
2017-10-10T12:36:36.517Z,1705
2017-10-10T12:36:57.800Z,1750
2017-10-10T12:37:18.718Z,1815
2017-10-10T12:37:40.161Z,1860
2017-10-10T12:38:01.185Z,1875
2017-10-10T12:38:31.990Z,1925
2017-10-10T12:38:59.069Z,1965
2017-10-10T12:39:26.119Z,2000
2017-10-10T12:39:46.634Z,2040
2017-10-10T12:40:14.529Z,2040
2017-10-10T12:40:39.531Z,2015
2017-10-10T12:41:02.064Z,2060
2017-10-10T12:41:23.331Z,2135
2017-10-10T12:41:43.227Z,2210
2017-10-10T12:42:04.252Z,2255
2017-10-10T12:42:24.418Z,2290
2017-10-10T12:42:44.383Z,2300
2017-10-10T12:43:05.597Z,2305
2017-10-10T12:43:26.570Z,2330
2017-10-10T12:43:47.028Z,2300
2017-10-10T12:44:07.641Z,2245
2017-10-10T12:44:29.237Z,2195
2017-10-10T12:44:50.213Z,2175
2017-10-10T12:45:10.456Z,2190
2017-10-10T12:45:30.042Z,2225
2017-10-10T12:45:51.129Z,2260
2017-10-10T12:46:11.368Z,2275
2017-10-10T12:46:32.101Z,2275
2017-10-10T12:46:52.290Z,2305
2017-10-10T12:47:13.216Z,2285
2017-10-10T12:47:33.814Z,2225
2017-10-10T12:47:54.512Z,2160
2017-10-10T12:48:14.719Z,2170
2017-10-10T12:48:34.255Z,2175
2017-10-10T12:48:55.884Z,2165
2017-10-10T12:49:15.737Z,2155
2017-10-10T12:49:37.631Z,2115
2017-10-10T12:49:57.936Z,2085
2017-10-10T12:50:20.973Z,2075
2017-10-10T12:50:42.132Z,2095
2017-10-10T12:51:03.542Z,2105
2017-10-10T12:51:24.856Z,2120
2017-10-10T12:51:45.369Z,2105
2017-10-10T12:52:05.189Z,2120
2017-10-10T12:52:26.826Z,2110
2017-10-10T12:52:46.217Z,2080
2017-10-10T12:53:07.339Z,2040
2017-10-10T12:53:29.024Z,2015
2017-10-10T12:53:48.742Z,1985
2017-10-10T12:54:09.439Z,1970
2017-10-10T12:54:28.020Z,1940
2017-10-10T12:54:47.962Z,1945
2017-10-10T12:55:08.912Z,1960
2017-10-10T12:55:29.740Z,1990
2017-10-10T12:55:51.380Z,2010
2017-10-10T12:56:12.472Z,2020
2017-10-10T12:56:32.609Z,2035
2017-10-10T12:56:53.551Z,2045
2017-10-10T12:57:13.136Z,2030
2017-10-10T12:57:34.371Z,2025
2017-10-10T12:57:55.338Z,2080
2017-10-10T12:58:16.667Z,2125
2017-10-10T12:58:36.632Z,2165
2017-10-10T12:58:57.809Z,2185
2017-10-10T12:59:21.402Z,2205
2017-10-10T12:59:43.614Z,2215
2017-10-10T13:00:05.265Z,2180
2017-10-10T13:00:27.430Z,2180
2017-10-10T13:00:51.899Z,2180
2017-10-10T13:01:14.845Z,2150
2017-10-10T13:01:35.939Z,2125
2017-10-10T13:01:57.772Z,2110
2017-10-10T13:02:20.975Z,2080
2017-10-10T13:02:41.847Z,2060
2017-10-10T13:03:03.205Z,2035
2017-10-10T13:03:25.644Z,2010
2017-10-10T13:03:45.400Z,1990
2017-10-10T13:04:06.014Z,1990
2017-10-10T13:04:27.602Z,1990
2017-10-10T13:04:48.518Z,1985
2017-10-10T13:05:08.333Z,1970
2017-10-10T13:05:29.582Z,1965
2017-10-10T13:05:50.267Z,1970
2017-10-10T13:06:10.326Z,1955
2017-10-10T13:06:31.784Z,1935
2017-10-10T13:06:53.176Z,1910
2017-10-10T13:07:13.784Z,1885
2017-10-10T13:07:34.494Z,1830
2017-10-10T13:07:55.895Z,1810
2017-10-10T13:08:17.496Z,1810
2017-10-10T13:08:38.016Z,1780
2017-10-10T13:08:58.540Z,1780
2017-10-10T13:09:19.886Z,1775
2017-10-10T13:09:41.207Z,1765
2017-10-10T13:10:02.644Z,1765
2017-10-10T13:10:24.107Z,1780
2017-10-10T13:10:43.304Z,1790
2017-10-10T13:11:04.764Z,1805
2017-10-10T13:11:26.211Z,1810
2017-10-10T13:11:46.553Z,1830
2017-10-10T13:12:07.767Z,1855
2017-10-10T13:12:29.044Z,1910
2017-10-10T13:12:49.157Z,1980
2017-10-10T13:13:09.810Z,2030
2017-10-10T13:13:31.675Z,2055
2017-10-10T13:13:52.925Z,2080
2017-10-10T13:14:14.111Z,2085
2017-10-10T13:14:35.994Z,2105
2017-10-10T13:14:57.150Z,2115
2017-10-10T13:15:17.930Z,2145
2017-10-10T13:15:39.739Z,2175
2017-10-10T13:16:00.139Z,2220
2017-10-10T13:16:20.638Z,2290
2017-10-10T13:16:41.898Z,2295
2017-10-10T13:17:02.576Z,2280
2017-10-10T13:17:24.117Z,2240
2017-10-10T13:17:44.341Z,2200
2017-10-10T13:18:05.583Z,2120
2017-10-10T13:18:27.290Z,2055
2017-10-10T13:18:48.938Z,2000
2017-10-10T13:19:09.735Z,1970
2017-10-10T13:19:31.105Z,1930
2017-10-10T13:19:51.167Z,1895
2017-10-10T13:20:10.281Z,1865
2017-10-10T13:20:31.313Z,1860
2017-10-10T13:20:52.005Z,1870
2017-10-10T13:21:12.823Z,1905
2017-10-10T13:21:33.241Z,1960
2017-10-10T13:21:53.899Z,2035
2017-10-10T13:22:14.580Z,2090
2017-10-10T13:22:35.289Z,2105
2017-10-10T13:22:55.582Z,2095
2017-10-10T13:23:16.336Z,2060
2017-10-10T13:23:37.524Z,2045
2017-10-10T13:23:58.390Z,2065
2017-10-10T13:24:20.377Z,2135
2017-10-10T13:24:41.372Z,2195
2017-10-10T13:25:02.262Z,2210
2017-10-10T13:25:22.169Z,2225
2017-10-10T13:25:43.526Z,2185
2017-10-10T13:26:04.255Z,2115
2017-10-10T13:26:24.471Z,2015
2017-10-10T13:26:48.159Z,1900
2017-10-10T13:27:08.033Z,1840
2017-10-10T13:27:28.515Z,1780
2017-10-10T13:27:48.170Z,1740
2017-10-10T13:28:09.014Z,1710
2017-10-10T13:28:29.682Z,1690
2017-10-10T13:28:50.517Z,1670
2017-10-10T13:29:10.962Z,1660
2017-10-10T13:29:31.506Z,1665
2017-10-10T13:29:50.682Z,1670
2017-10-10T13:30:12.136Z,1675
2017-10-10T13:30:33.099Z,1675
2017-10-10T13:30:54.090Z,1685
2017-10-10T13:31:15.315Z,1670
2017-10-10T13:31:35.555Z,1670
2017-10-10T13:31:55.319Z,1660
2017-10-10T13:32:17.532Z,1655
2017-10-10T13:32:38.360Z,1655
2017-10-10T13:32:58.167Z,1655
2017-10-10T13:33:18.884Z,1665
2017-10-10T13:33:37.892Z,1655
2017-10-10T13:33:59.038Z,1645
2017-10-10T13:34:20.018Z,1650
2017-10-10T13:34:38.893Z,1645
2017-10-10T13:35:00.209Z,1635
2017-10-10T13:35:20.839Z,1625
2017-10-10T13:35:42.814Z,1620
2017-10-10T13:36:03.515Z,1615
2017-10-10T13:36:23.904Z,1620
2017-10-10T13:36:45.526Z,1605
2017-10-10T13:37:05.940Z,1605
2017-10-10T13:37:26.950Z,1620
2017-10-10T13:37:47.623Z,1615
2017-10-10T13:38:09.603Z,1610
2017-10-10T13:38:29.874Z,1610
2017-10-10T13:38:50.704Z,1625
2017-10-10T13:39:12.125Z,1605
2017-10-10T13:39:33.281Z,1600
2017-10-10T13:39:54.708Z,1595
2017-10-10T13:40:16.379Z,1590
2017-10-10T13:40:37.380Z,1590
2017-10-10T13:40:57.865Z,1595
2017-10-10T13:41:18.442Z,1600
2017-10-10T13:41:39.161Z,1595
2017-10-10T13:41:59.692Z,1610
2017-10-10T13:42:19.630Z,1615
2017-10-10T13:42:41.053Z,1620
2017-10-10T13:43:01.825Z,1635
2017-10-10T13:43:22.577Z,1640
2017-10-10T13:43:43.290Z,1645
2017-10-10T13:44:03.050Z,1640
2017-10-10T13:44:24.338Z,1635
2017-10-10T13:44:45.649Z,1630
2017-10-10T13:45:06.307Z,1630
2017-10-10T13:45:27.358Z,1625
2017-10-10T13:45:48.252Z,1610
2017-10-10T13:46:09.426Z,1610
2017-10-10T13:46:31.954Z,1605
2017-10-10T13:46:53.964Z,1605
2017-10-10T13:47:15.529Z,1600
2017-10-10T13:47:35.835Z,1585
2017-10-10T13:47:57.002Z,1600
2017-10-10T13:48:17.468Z,1605
2017-10-10T13:48:38.724Z,1610
2017-10-10T13:48:59.677Z,1620
2017-10-10T13:49:20.312Z,1620
2017-10-10T13:49:42.647Z,1595
2017-10-10T13:50:03.914Z,1595
2017-10-10T13:50:25.338Z,1585
2017-10-10T13:50:48.032Z,1565
2017-10-10T13:51:09.924Z,1575
2017-10-10T13:51:30.865Z,1585
2017-10-10T13:51:52.420Z,1580
2017-10-10T13:52:14.767Z,1585
2017-10-10T13:52:39.436Z,1565
2017-10-10T13:53:06.923Z,1545
2017-10-10T13:53:28.053Z,1550
2017-10-10T13:53:49.856Z,1555
2017-10-10T13:54:11.031Z,1565
2017-10-10T13:54:30.928Z,1560
2017-10-10T13:54:52.889Z,1550
2017-10-10T13:55:13.652Z,1555
2017-10-10T13:55:35.042Z,1560
2017-10-10T13:55:56.615Z,1545
2017-10-10T13:56:17.879Z,1555
2017-10-10T13:56:39.612Z,1545
2017-10-10T13:57:00.502Z,1565
2017-10-10T13:57:21.814Z,1615
2017-10-10T13:57:43.754Z,1620
2017-10-10T13:58:06.141Z,1635
2017-10-10T13:58:27.957Z,1660
2017-10-10T13:58:50.642Z,1655
2017-10-10T13:59:11.992Z,1650
2017-10-10T13:59:33.917Z,1655
2017-10-10T13:59:54.691Z,1680
2017-10-10T14:00:15.849Z,1695
2017-10-10T14:00:36.381Z,1720
2017-10-10T14:00:57.498Z,1715
2017-10-10T14:01:18.481Z,1730
2017-10-10T14:01:39.947Z,1735
2017-10-10T14:02:01.015Z,1725
2017-10-10T14:02:21.864Z,1715
2017-10-10T14:02:42.986Z,1700
2017-10-10T14:03:04.369Z,1670
2017-10-10T14:03:25.439Z,1675
2017-10-10T14:03:46.523Z,1690
2017-10-10T14:04:07.266Z,1690
2017-10-10T14:04:28.311Z,1695
2017-10-10T14:04:49.678Z,1700
2017-10-10T14:05:10.656Z,1680
2017-10-10T14:05:32.610Z,1690
2017-10-10T14:05:53.360Z,1690
2017-10-10T14:06:14.722Z,1700
2017-10-10T14:06:36.167Z,1725
2017-10-10T14:06:55.834Z,1750
2017-10-10T14:07:16.751Z,1795
2017-10-10T14:07:38.248Z,1830
2017-10-10T14:07:59.773Z,1860
2017-10-10T14:08:21.044Z,1870
2017-10-10T14:08:42.117Z,1865
2017-10-10T14:09:03.633Z,1845
2017-10-10T14:09:24.719Z,1835
2017-10-10T14:09:45.656Z,1830
2017-10-10T14:10:05.842Z,1835
2017-10-10T14:10:25.709Z,1855
2017-10-10T14:10:46.026Z,1870
2017-10-10T14:11:07.331Z,1895
2017-10-10T14:11:27.690Z,1895
2017-10-10T14:11:49.157Z,1900
2017-10-10T14:12:09.722Z,1900
2017-10-10T14:12:31.075Z,1925
2017-10-10T14:12:52.285Z,1985
2017-10-10T14:13:13.372Z,2065
2017-10-10T14:13:34.120Z,2115
2017-10-10T14:13:54.959Z,2140
2017-10-10T14:14:16.247Z,2165
2017-10-10T14:14:36.611Z,2160
2017-10-10T14:14:57.979Z,2080
2017-10-10T14:15:18.638Z,2025
2017-10-10T14:15:40.369Z,1935
2017-10-10T14:16:00.925Z,1890
2017-10-10T14:16:21.826Z,1855
2017-10-10T14:16:42.405Z,1825
2017-10-10T14:17:01.217Z,1785
2017-10-10T14:17:20.901Z,1745
2017-10-10T14:17:41.966Z,1735
2017-10-10T14:18:03.101Z,1720
2017-10-10T14:18:23.653Z,1705
2017-10-10T14:18:43.502Z,1715
2017-10-10T14:19:04.865Z,1720
2017-10-10T14:19:26.270Z,1710
2017-10-10T14:19:46.722Z,1730
2017-10-10T14:20:08.257Z,1725